createdAt,value
2018-07-13T00:00:07.434Z,94.12
2018-07-13T00:01:07.373Z,94.21
2018-07-13T00:02:07.286Z,93.54
2018-07-13T00:03:07.223Z,93.83
2018-07-13T00:04:07.137Z,93.35
2018-07-13T00:05:07.071Z,93.16
2018-07-13T00:06:06.993Z,92.01
2018-07-13T00:07:06.927Z,92.39
2018-07-13T00:08:06.845Z,92.39
2018-07-13T00:09:06.780Z,92.49
2018-07-13T00:10:06.695Z,92.68
2018-07-13T00:11:06.632Z,92.58
2018-07-13T00:12:06.552Z,92.87
2018-07-13T00:13:06.482Z,92.77
2018-07-13T00:14:06.403Z,92.68
2018-07-13T00:15:06.340Z,92.87
2018-07-13T00:16:06.259Z,92.77
2018-07-13T00:17:06.191Z,93.44
2018-07-13T00:18:06.112Z,93.83
2018-07-13T00:19:06.045Z,95.26
2018-07-13T00:20:05.963Z,95.56
2018-07-13T00:21:05.902Z,96.22
2018-07-13T00:22:05.816Z,96.13
2018-07-13T00:23:05.758Z,96.99
2018-07-13T00:24:05.667Z,97.28
2018-07-13T00:25:05.603Z,97.38
2018-07-13T00:26:05.522Z,97.28
2018-07-13T00:27:05.456Z,96.99
2018-07-13T00:28:05.376Z,97.28
2018-07-13T00:29:05.312Z,98.24
2018-07-13T00:30:05.226Z,98.14
2018-07-13T00:31:05.161Z,98.52
2018-07-13T00:32:05.083Z,98.33
2018-07-13T00:33:05.015Z,98.24
2018-07-13T00:34:04.932Z,98.24
2018-07-13T00:35:04.868Z,97.66
2018-07-13T00:36:04.782Z,97.85
2018-07-13T00:37:04.722Z,97.85
2018-07-13T00:38:04.639Z,96.80
2018-07-13T00:39:04.573Z,96.99
2018-07-13T00:40:04.499Z,96.22
2018-07-13T00:41:04.426Z,96.99
2018-07-13T00:42:04.343Z,96.13
2018-07-13T00:43:04.278Z,96.22
2018-07-13T00:44:04.198Z,97.38
2018-07-13T00:45:04.130Z,97.56
2018-07-13T00:46:04.049Z,97.38
2018-07-13T00:47:03.984Z,97.38
2018-07-13T00:48:03.901Z,97.38
2018-07-13T00:49:03.838Z,96.61
2018-07-13T00:50:03.753Z,95.75
2018-07-13T00:51:03.686Z,94.40
2018-07-13T00:52:03.611Z,94.31
2018-07-13T00:53:03.542Z,93.93
2018-07-13T00:54:03.463Z,93.63
2018-07-13T00:55:03.401Z,93.83
2018-07-13T00:56:03.314Z,93.93
2018-07-13T00:57:03.246Z,95.07
2018-07-13T00:58:03.167Z,95.84
2018-07-13T00:59:03.102Z,95.46
2018-07-13T01:00:03.016Z,95.17
2018-07-13T01:01:02.952Z,95.07
2018-07-13T01:02:02.870Z,94.69
2018-07-13T01:03:02.805Z,94.98
2018-07-13T01:04:02.725Z,94.98
2018-07-13T01:05:02.657Z,94.50
2018-07-13T01:06:02.576Z,94.40
2018-07-13T01:07:02.514Z,94.17
2018-07-13T01:08:02.431Z,93.98
2018-07-13T01:09:02.363Z,93.44
2018-07-13T01:10:02.287Z,93.44
2018-07-13T01:11:02.218Z,93.54
2018-07-13T01:12:02.136Z,93.11
2018-07-13T01:13:02.067Z,93.69
2018-07-13T01:14:01.986Z,93.98
2018-07-13T01:15:01.921Z,93.21
2018-07-13T01:16:01.838Z,93.69
2018-07-13T01:17:01.776Z,94.35
2018-07-13T01:18:01.691Z,94.07
2018-07-13T01:19:01.625Z,94.35
2018-07-13T01:20:01.547Z,93.78
2018-07-13T01:21:01.479Z,93.98
2018-07-13T01:22:01.401Z,93.30
2018-07-13T01:23:01.329Z,92.11
2018-07-13T01:24:01.251Z,92.21
2018-07-13T01:25:01.182Z,92.49
2018-07-13T01:26:01.102Z,93.07
2018-07-13T01:27:01.036Z,92.68
2018-07-13T01:28:00.953Z,93.83
2018-07-13T01:29:00.887Z,94.02
2018-07-13T01:30:00.813Z,94.02
2018-07-13T01:31:00.739Z,94.60
2018-07-13T01:32:00.663Z,93.74
2018-07-13T01:33:00.592Z,93.64
2018-07-13T01:34:00.512Z,93.74
2018-07-13T01:35:00.442Z,93.93
2018-07-13T01:36:00.363Z,94.50
2018-07-13T01:37:00.294Z,94.12
2018-07-13T01:38:00.220Z,93.93
2018-07-13T01:39:00.148Z,94.12
2018-07-13T01:40:00.063Z,93.54
2018-07-13T01:41:00.006Z,94.17
2018-07-13T01:41:59.921Z,94.02
2018-07-13T01:42:59.856Z,93.07
2018-07-13T01:43:59.774Z,92.30
2018-07-13T01:44:59.706Z,92.40
2018-07-13T01:45:59.621Z,93.07
2018-07-13T01:46:59.556Z,92.78
2018-07-13T01:47:59.474Z,92.78
2018-07-13T01:48:59.405Z,92.21
2018-07-13T01:49:59.326Z,92.40
2018-07-13T01:50:59.262Z,92.97
2018-07-13T01:51:59.178Z,92.58
2018-07-13T01:52:59.113Z,91.53
2018-07-13T01:53:59.055Z,92.01
2018-07-13T01:54:58.964Z,92.83
2018-07-13T01:55:58.878Z,93.07
2018-07-13T01:56:58.818Z,93.69
2018-07-13T01:57:58.734Z,93.50
2018-07-13T01:58:58.669Z,93.69
2018-07-13T01:59:58.585Z,93.88
2018-07-13T02:00:58.520Z,94.36
2018-07-13T02:01:58.434Z,94.65
2018-07-13T02:02:58.370Z,93.69
2018-07-13T02:03:58.286Z,93.69
2018-07-13T02:04:58.223Z,93.69
2018-07-13T02:05:58.136Z,94.07
2018-07-13T02:06:58.076Z,94.26
2018-07-13T02:07:57.991Z,94.93
2018-07-13T02:08:57.924Z,94.17
2018-07-13T02:09:57.846Z,94.07
2018-07-13T02:10:57.777Z,94.36
2018-07-13T02:11:57.696Z,94.93
2018-07-13T02:12:57.630Z,93.98
2018-07-13T02:13:57.543Z,93.40
2018-07-13T02:14:57.482Z,93.88
2018-07-13T02:15:57.396Z,93.21
2018-07-13T02:16:57.330Z,93.79
2018-07-13T02:17:57.249Z,93.98
2018-07-13T02:18:57.179Z,94.36
2018-07-13T02:19:57.102Z,94.93
2018-07-13T02:20:57.029Z,94.31
2018-07-13T02:21:56.950Z,94.31
2018-07-13T02:22:56.882Z,94.07
2018-07-13T02:23:56.803Z,94.12
2018-07-13T02:24:56.738Z,95.17
2018-07-13T02:25:56.647Z,94.21
2018-07-13T02:26:56.584Z,94.31
2018-07-13T02:27:56.502Z,95.17
2018-07-13T02:28:56.437Z,95.17
2018-07-13T02:29:56.351Z,95.65
2018-07-13T02:30:56.286Z,95.46
2018-07-13T02:31:56.206Z,96.03
2018-07-13T02:32:56.133Z,95.75
2018-07-13T02:33:56.095Z,95.56
2018-07-13T02:34:56.027Z,94.98
2018-07-13T02:35:55.906Z,93.60
2018-07-13T02:36:55.837Z,92.93
2018-07-13T02:37:55.797Z,93.12
2018-07-13T02:38:55.708Z,93.21
2018-07-13T02:39:55.608Z,93.21
2018-07-13T02:40:55.546Z,94.26
2018-07-13T02:41:55.461Z,95.03
2018-07-13T02:42:55.386Z,96.08
2018-07-13T02:43:55.310Z,96.08
2018-07-13T02:44:55.242Z,95.98
2018-07-13T02:45:55.162Z,94.65
2018-07-13T02:46:55.095Z,94.84
2018-07-13T02:47:55.012Z,95.03
2018-07-13T02:48:54.945Z,94.07
2018-07-13T02:49:54.862Z,94.74
2018-07-13T02:50:54.796Z,95.51
2018-07-13T02:51:54.715Z,95.61
2018-07-13T02:52:54.649Z,95.41
2018-07-13T02:53:54.563Z,96.56
2018-07-13T02:54:54.497Z,95.89
2018-07-13T02:55:54.413Z,96.27
2018-07-13T02:56:54.344Z,96.66
2018-07-13T02:57:54.268Z,96.66
2018-07-13T02:58:54.194Z,97.04
2018-07-13T02:59:54.114Z,97.13
2018-07-13T03:00:54.048Z,97.99
2018-07-13T03:01:53.969Z,98.18
2018-07-13T03:02:53.898Z,98.28
2018-07-13T03:03:53.823Z,97.99
2018-07-13T03:04:53.745Z,97.80
2018-07-13T03:05:53.667Z,97.23
2018-07-13T03:06:53.597Z,95.79
2018-07-13T03:07:53.513Z,94.70
2018-07-13T03:08:53.444Z,94.31
2018-07-13T03:09:53.416Z,94.22
2018-07-13T03:10:53.299Z,95.07
2018-07-13T03:11:53.212Z,93.74
2018-07-13T03:12:53.146Z,93.74
2018-07-13T03:13:53.065Z,94.02
2018-07-13T03:14:53.007Z,94.98
2018-07-13T03:15:52.917Z,95.07
2018-07-13T03:16:52.847Z,96.32
2018-07-13T03:17:52.769Z,96.13
2018-07-13T03:18:52.697Z,96.61
2018-07-13T03:19:52.615Z,96.80
2018-07-13T03:20:52.547Z,97.08
2018-07-13T03:21:52.466Z,98.23
2018-07-13T03:22:52.401Z,97.94
2018-07-13T03:23:52.313Z,97.85
2018-07-13T03:24:52.249Z,98.23
2018-07-13T03:25:52.168Z,98.33
2018-07-13T03:26:52.100Z,99.19
2018-07-13T03:27:52.013Z,99.76
2018-07-13T03:28:51.945Z,99.99
2018-07-13T03:29:51.863Z,99.95
2018-07-13T03:30:51.796Z,99.99
2018-07-13T03:31:51.713Z,99.48
2018-07-13T03:32:51.647Z,99.76
2018-07-13T03:33:51.563Z,98.80
2018-07-13T03:34:51.499Z,98.42
2018-07-13T03:35:51.414Z,96.51
2018-07-13T03:36:51.348Z,94.12
2018-07-13T03:37:51.261Z,92.79
2018-07-13T03:38:51.193Z,92.79
2018-07-13T03:39:51.115Z,93.07
2018-07-13T03:40:51.041Z,94.31
2018-07-13T03:41:50.966Z,95.07
2018-07-13T03:42:50.895Z,94.89
2018-07-13T03:43:50.862Z,95.94
2018-07-13T03:44:50.741Z,95.65
2018-07-13T03:45:50.658Z,95.27
2018-07-13T03:46:50.596Z,94.79
2018-07-13T03:47:50.509Z,95.07
2018-07-13T03:48:50.441Z,94.70
2018-07-13T03:49:50.362Z,95.84
2018-07-13T03:50:50.289Z,96.51
2018-07-13T03:51:50.210Z,97.28
2018-07-13T03:52:50.139Z,98.13
2018-07-13T03:53:50.074Z,97.85
2018-07-13T03:54:49.989Z,97.85
2018-07-13T03:55:49.904Z,98.61
2018-07-13T03:56:49.847Z,98.04
2018-07-13T03:57:49.811Z,97.08
2018-07-13T03:58:49.680Z,97.66
2018-07-13T03:59:49.608Z,97.56
2018-07-13T04:00:49.530Z,98.23
2018-07-13T04:01:49.531Z,97.56
2018-07-13T04:02:49.381Z,98.23
2018-07-13T04:03:49.353Z,98.52
2018-07-13T04:04:49.229Z,98.33
2018-07-13T04:05:49.251Z,98.80
2018-07-13T04:06:49.080Z,97.85
2018-07-13T04:07:49.007Z,96.70
2018-07-13T04:08:48.926Z,95.94
2018-07-13T04:09:48.867Z,95.36
2018-07-13T04:10:48.774Z,94.89
2018-07-13T04:11:48.778Z,95.07
2018-07-13T04:12:48.623Z,94.41
2018-07-13T04:13:48.586Z,94.79
2018-07-13T04:14:48.536Z,96.13
2018-07-13T04:15:48.504Z,95.65
2018-07-13T04:16:48.325Z,96.17
2018-07-13T04:17:48.311Z,96.46
2018-07-13T04:18:48.169Z,96.56
2018-07-13T04:19:48.181Z,96.94
2018-07-13T04:20:48.019Z,97.32
2018-07-13T04:21:47.952Z,97.32
2018-07-13T04:22:47.871Z,97.52
2018-07-13T04:23:47.811Z,98.08
2018-07-13T04:24:47.717Z,98.08
2018-07-13T04:25:47.650Z,98.18
2018-07-13T04:26:47.567Z,98.04
2018-07-13T04:27:47.503Z,98.42
2018-07-13T04:28:47.497Z,97.75
2018-07-13T04:29:47.348Z,97.75
2018-07-13T04:30:47.261Z,98.33
2018-07-13T04:31:47.276Z,98.42
2018-07-13T04:32:47.108Z,98.61
2018-07-13T04:33:47.049Z,98.23
2018-07-13T04:34:46.963Z,98.23
2018-07-13T04:35:46.998Z,99.38
2018-07-13T04:36:46.811Z,98.90
2018-07-13T04:37:46.747Z,99.19
2018-07-13T04:38:46.665Z,99.99
2018-07-13T04:39:46.591Z,99.99
2018-07-13T04:40:46.572Z,99.85
2018-07-13T04:41:46.441Z,99.99
2018-07-13T04:42:46.364Z,99.99
2018-07-13T04:43:46.294Z,99.99
2018-07-13T04:44:46.205Z,99.99
2018-07-13T04:45:46.243Z,99.99
2018-07-13T04:46:46.058Z,99.99
2018-07-13T04:47:46.056Z,99.99
2018-07-13T04:48:45.906Z,99.99
2018-07-13T04:49:45.833Z,99.99
2018-07-13T04:50:45.755Z,99.99
2018-07-13T04:51:45.685Z,99.99
2018-07-13T04:52:45.603Z,99.99
2018-07-13T04:53:45.533Z,99.99
2018-07-13T04:54:45.450Z,99.99
2018-07-13T04:55:45.385Z,99.99
2018-07-13T04:56:45.300Z,99.99
2018-07-13T04:57:45.234Z,99.99
2018-07-13T04:58:45.149Z,99.99
2018-07-13T04:59:45.111Z,99.99
2018-07-13T05:00:45.047Z,99.99
2018-07-13T05:01:45.037Z,99.99
2018-07-13T05:02:44.848Z,99.99
2018-07-13T05:03:44.832Z,99.99
2018-07-13T05:04:44.698Z,99.99
2018-07-13T05:05:44.640Z,99.99
2018-07-13T05:06:44.546Z,99.99
2018-07-13T05:07:44.477Z,99.99
2018-07-13T05:08:44.392Z,99.99
2018-07-13T05:09:44.358Z,99.99
2018-07-13T05:10:44.244Z,99.99
2018-07-13T05:11:44.269Z,99.99
2018-07-13T05:12:44.091Z,99.99
2018-07-13T05:13:44.073Z,99.99
2018-07-13T05:14:43.944Z,99.99
2018-07-13T05:15:43.880Z,99.99
2018-07-13T05:16:43.789Z,99.99
2018-07-13T05:17:43.794Z,99.99
2018-07-13T05:18:43.640Z,99.99
2018-07-13T05:19:43.599Z,99.99
2018-07-13T05:20:43.487Z,99.99
2018-07-13T05:21:43.516Z,99.99
2018-07-13T05:22:43.337Z,99.99
2018-07-13T05:23:43.326Z,99.99
2018-07-13T05:24:43.191Z,99.99
2018-07-13T05:25:43.133Z,99.99
2018-07-13T05:26:43.035Z,99.99
2018-07-13T05:27:43.041Z,99.99
2018-07-13T05:28:42.885Z,99.99
2018-07-13T05:29:42.849Z,99.99
2018-07-13T05:30:42.761Z,99.99
2018-07-13T05:31:42.762Z,99.99
2018-07-13T05:32:42.584Z,99.96
2018-07-13T05:33:42.570Z,99.67
2018-07-13T05:34:42.436Z,99.33
2018-07-13T05:35:42.379Z,99.99
2018-07-13T05:36:42.284Z,99.99
2018-07-13T05:37:42.290Z,99.99
2018-07-13T05:38:42.136Z,99.99
2018-07-13T05:39:42.099Z,99.99
2018-07-13T05:40:41.983Z,99.99
2018-07-13T05:41:42.010Z,99.99
2018-07-13T05:42:41.835Z,99.99
2018-07-13T05:43:41.820Z,99.99
2018-07-13T05:44:41.692Z,99.87
2018-07-13T05:45:41.628Z,99.58
2018-07-13T05:46:41.534Z,99.77
2018-07-13T05:47:41.534Z,99.29
2018-07-13T05:48:41.385Z,99.38
2018-07-13T05:49:41.361Z,99.19
2018-07-13T05:50:41.238Z,99.34
2018-07-13T05:51:41.259Z,99.34
2018-07-13T05:52:41.090Z,99.34
2018-07-13T05:53:41.067Z,99.34
2018-07-13T05:54:40.936Z,99.05
2018-07-13T05:55:40.975Z,98.76
2018-07-13T05:56:40.786Z,98.47
2018-07-13T05:57:40.785Z,98.00
2018-07-13T05:58:40.635Z,98.28
2018-07-13T05:59:40.594Z,98.81
2018-07-13T06:00:40.487Z,98.33
2018-07-13T06:01:40.504Z,98.24
2018-07-13T06:02:40.338Z,98.24
2018-07-13T06:03:40.314Z,98.52
2018-07-13T06:04:40.189Z,98.38
2018-07-13T06:05:40.228Z,97.81
2018-07-13T06:06:40.042Z,97.33
2018-07-13T06:07:40.034Z,97.52
2018-07-13T06:08:39.892Z,97.23
2018-07-13T06:09:39.847Z,98.19
2018-07-13T06:10:39.742Z,98.10
2018-07-13T06:11:39.753Z,98.62
2018-07-13T06:12:39.594Z,98.24
2018-07-13T06:13:39.563Z,98.24
2018-07-13T06:14:39.505Z,97.38
2018-07-13T06:15:39.473Z,97.09
2018-07-13T06:16:39.302Z,96.51
2018-07-13T06:17:39.284Z,96.22
2018-07-13T06:18:39.149Z,95.26
2018-07-13T06:19:39.198Z,95.46
2018-07-13T06:20:39.004Z,94.21
2018-07-13T06:21:39.001Z,92.96
2018-07-13T06:22:38.855Z,92.82
2018-07-13T06:23:38.806Z,92.53
2018-07-13T06:24:38.711Z,91.96
2018-07-13T06:25:38.722Z,91.28
2018-07-13T06:26:38.561Z,91.57
2018-07-13T06:27:38.532Z,90.61
2018-07-13T06:28:38.409Z,89.94
2018-07-13T06:29:38.447Z,88.73
2018-07-13T06:30:38.259Z,88.64
2018-07-13T06:31:38.324Z,88.45
2018-07-13T06:32:38.111Z,87.87
2018-07-13T06:33:38.058Z,87.58
2018-07-13T06:34:37.970Z,88.06
2018-07-13T06:35:37.969Z,87.72
2018-07-13T06:36:37.818Z,87.19
2018-07-13T06:37:37.778Z,87.43
2018-07-13T06:38:37.674Z,86.47
2018-07-13T06:39:37.688Z,85.41
2018-07-13T06:40:37.527Z,85.51
2018-07-13T06:41:37.497Z,86.09
2018-07-13T06:42:37.380Z,85.13
2018-07-13T06:43:37.407Z,84.26
2018-07-13T06:44:37.228Z,84.78
2018-07-13T06:45:37.216Z,84.88
2018-07-13T06:46:37.085Z,84.69
2018-07-13T06:47:37.125Z,85.36
2018-07-13T06:48:36.935Z,84.98
2018-07-13T06:49:36.935Z,84.69
2018-07-13T06:50:36.815Z,84.11
2018-07-13T06:51:36.744Z,84.40
2018-07-13T06:52:36.649Z,83.92
2018-07-13T06:53:36.654Z,84.69
2018-07-13T06:54:36.499Z,84.16
2018-07-13T06:55:36.469Z,83.48
2018-07-13T06:56:36.353Z,82.71
2018-07-13T06:57:36.374Z,82.90
2018-07-13T06:58:36.208Z,82.90
2018-07-13T06:59:36.144Z,83.39
2018-07-13T07:00:36.065Z,82.71
2018-07-13T07:01:36.094Z,82.90
2018-07-13T07:02:35.916Z,82.94
2018-07-13T07:03:35.901Z,82.75
2018-07-13T07:04:35.771Z,82.94
2018-07-13T07:05:35.813Z,82.37
2018-07-13T07:06:35.626Z,82.94
2018-07-13T07:07:35.681Z,82.27
2018-07-13T07:08:35.483Z,82.08
2018-07-13T07:09:35.432Z,81.60
2018-07-13T07:10:35.339Z,82.17
2018-07-13T07:11:35.342Z,82.41
2018-07-13T07:12:35.190Z,82.50
2018-07-13T07:13:35.150Z,82.50
2018-07-13T07:14:35.053Z,81.35
2018-07-13T07:15:35.062Z,80.77
2018-07-13T07:16:34.901Z,82.98
2018-07-13T07:17:34.870Z,82.83
2018-07-13T07:18:34.760Z,81.77
2018-07-13T07:19:34.701Z,81.10
2018-07-13T07:20:34.611Z,79.85
2018-07-13T07:21:34.662Z,79.17
2018-07-13T07:22:34.468Z,80.71
2018-07-13T07:23:34.469Z,80.18
2018-07-13T07:24:34.347Z,78.06
2018-07-13T07:25:34.254Z,77.67
2018-07-13T07:26:34.184Z,77.58
2018-07-13T07:27:34.189Z,77.67
2018-07-13T07:28:34.045Z,77.61
2018-07-13T07:29:33.997Z,75.45
2018-07-13T07:30:33.910Z,73.47
2018-07-13T07:31:33.908Z,73.85
2018-07-13T07:32:33.751Z,73.57
2018-07-13T07:33:33.716Z,71.92
2018-07-13T07:34:33.608Z,72.12
2018-07-13T07:35:33.537Z,71.44
2018-07-13T07:36:33.465Z,72.21
2018-07-13T07:37:33.438Z,71.54
2018-07-13T07:38:33.372Z,72.02
2018-07-13T07:39:33.351Z,72.25
2018-07-13T07:40:33.181Z,72.06
2018-07-13T07:41:33.158Z,71.09
2018-07-13T07:42:33.039Z,72.44
2018-07-13T07:43:33.067Z,73.15
2018-07-13T07:44:32.896Z,73.63
2018-07-13T07:45:32.825Z,74.31
2018-07-13T07:46:32.757Z,72.19
2018-07-13T07:47:32.790Z,70.68
2018-07-13T07:48:32.615Z,67.59
2018-07-13T07:49:32.601Z,66.43
2018-07-13T07:50:32.474Z,66.72
2018-07-13T07:51:32.511Z,67.30
2018-07-13T07:52:32.335Z,66.91
2018-07-13T07:53:32.319Z,66.08
2018-07-13T07:54:32.249Z,64.92
2018-07-13T07:55:32.231Z,64.92
2018-07-13T07:56:32.054Z,65.88
2018-07-13T07:57:32.106Z,66.66
2018-07-13T07:58:31.914Z,66.78
2018-07-13T07:59:31.953Z,67.08
2018-07-13T08:00:31.772Z,66.59
2018-07-13T08:01:31.761Z,66.91
2018-07-13T08:02:31.644Z,67.01
2018-07-13T08:03:31.673Z,66.82
2018-07-13T08:04:31.494Z,66.14
2018-07-13T08:05:31.425Z,65.17
2018-07-13T08:06:31.617Z,63.63
2018-07-13T08:07:31.338Z,61.69
2018-07-13T08:08:31.305Z,63.73
2018-07-13T08:09:31.145Z,64.98
2018-07-13T08:10:31.077Z,63.63
2018-07-13T08:11:31.113Z,61.89
2018-07-13T08:12:30.939Z,61.79
2018-07-13T08:13:31.013Z,61.30
2018-07-13T08:14:30.825Z,61.18
2018-07-13T08:15:30.837Z,61.76
2018-07-13T08:16:30.663Z,61.66
2018-07-13T08:17:30.647Z,61.57
2018-07-13T08:18:30.533Z,61.37
2018-07-13T08:19:30.555Z,61.47
2018-07-13T08:20:30.390Z,66.05
2018-07-13T08:21:30.364Z,65.92
2018-07-13T08:22:30.249Z,64.11
2018-07-13T08:23:30.275Z,64.01
2018-07-13T08:24:30.111Z,63.05
2018-07-13T08:25:30.086Z,62.85
2018-07-13T08:26:29.973Z,67.49
2018-07-13T08:27:29.996Z,67.98
2018-07-13T08:28:29.838Z,68.27
2018-07-13T08:29:29.804Z,66.63
2018-07-13T08:30:29.695Z,65.75
2018-07-13T08:31:29.716Z,64.98
2018-07-13T08:32:29.557Z,63.43
2018-07-13T08:33:29.527Z,61.50
2018-07-13T08:34:29.422Z,62.08
2018-07-13T08:35:29.438Z,63.63
2018-07-13T08:36:29.285Z,65.17
2018-07-13T08:37:29.246Z,65.17
2018-07-13T08:38:29.148Z,62.95
2018-07-13T08:39:29.157Z,63.05
2018-07-13T08:40:29.011Z,64.04
2018-07-13T08:41:28.967Z,64.79
2018-07-13T08:42:28.873Z,63.53
2018-07-13T08:43:28.875Z,61.82
2018-07-13T08:44:28.735Z,61.92
2018-07-13T08:45:28.789Z,59.98
2018-07-13T08:46:28.601Z,60.17
2018-07-13T08:47:28.597Z,61.05
2018-07-13T08:48:28.463Z,61.85
2018-07-13T08:49:28.509Z,60.88
2018-07-13T08:50:28.419Z,60.59
2018-07-13T08:51:28.333Z,61.27
2018-07-13T08:52:28.191Z,60.30
2018-07-13T08:53:28.227Z,60.40
2018-07-13T08:54:28.057Z,61.69
2018-07-13T08:55:27.989Z,60.04
2018-07-13T08:56:27.917Z,60.14
2018-07-13T08:57:27.951Z,60.33
2018-07-13T08:58:27.781Z,61.98
2018-07-13T08:59:27.759Z,62.37
2018-07-13T09:00:27.649Z,61.72
2018-07-13T09:01:27.669Z,62.49
2018-07-13T09:02:27.509Z,63.85
2018-07-13T09:03:27.479Z,60.27
2018-07-13T09:04:27.436Z,58.04
2018-07-13T09:05:27.391Z,59.10
2018-07-13T09:06:27.277Z,60.30
2018-07-13T09:07:27.206Z,61.07
2018-07-13T09:08:27.104Z,62.04
2018-07-13T09:09:27.112Z,62.43
2018-07-13T09:10:26.972Z,61.36
2018-07-13T09:11:26.921Z,61.26
2018-07-13T09:12:26.838Z,61.36
2018-07-13T09:13:26.832Z,61.36
2018-07-13T09:14:26.701Z,62.52
2018-07-13T09:15:26.746Z,62.33
2018-07-13T09:16:26.567Z,60.39
2018-07-13T09:17:26.555Z,62.91
2018-07-13T09:18:26.433Z,60.00
2018-07-13T09:19:26.470Z,60.68
2018-07-13T09:20:26.300Z,60.91
2018-07-13T09:21:26.276Z,61.10
2018-07-13T09:22:26.164Z,58.39
2018-07-13T09:23:26.187Z,57.12
2018-07-13T09:24:26.031Z,57.25
2018-07-13T09:25:25.999Z,55.89
2018-07-13T09:26:25.899Z,57.15
2018-07-13T09:27:25.906Z,56.28
2018-07-13T09:28:25.764Z,56.25
2018-07-13T09:29:25.824Z,55.99
2018-07-13T09:30:25.631Z,56.57
2018-07-13T09:31:25.630Z,58.41
2018-07-13T09:32:25.497Z,56.37
2018-07-13T09:33:25.542Z,55.02
2018-07-13T09:34:25.458Z,54.14
2018-07-13T09:35:25.349Z,54.53
2018-07-13T09:36:25.231Z,57.34
2018-07-13T09:37:25.256Z,58.70
2018-07-13T09:38:25.130Z,61.42
2018-07-13T09:39:25.072Z,60.97
2018-07-13T09:40:24.964Z,61.13
2018-07-13T09:41:24.983Z,56.09
2018-07-13T09:42:24.827Z,55.28
2018-07-13T09:43:24.790Z,55.57
2018-07-13T09:44:24.701Z,56.05
2018-07-13T09:45:24.631Z,57.32
2018-07-13T09:46:24.607Z,59.26
2018-07-13T09:47:24.499Z,60.42
2018-07-13T09:48:24.518Z,59.00
2018-07-13T09:49:24.367Z,55.50
2018-07-13T09:50:24.337Z,54.92
2018-07-13T09:51:24.252Z,56.40
2018-07-13T09:52:24.236Z,59.28
2018-07-13T09:53:24.100Z,60.38
2018-07-13T09:54:24.181Z,59.80
2018-07-13T09:55:23.967Z,56.24
2018-07-13T09:56:23.975Z,54.49
2018-07-13T09:57:23.852Z,54.39
2018-07-13T09:58:23.866Z,54.29
2018-07-13T09:59:23.705Z,56.24
2018-07-13T10:00:23.682Z,54.97
2018-07-13T10:01:23.581Z,57.50
2018-07-13T10:02:23.587Z,57.98
2018-07-13T10:03:23.449Z,56.65
2018-07-13T10:04:23.375Z,56.65
2018-07-13T10:05:23.310Z,55.88
2018-07-13T10:06:23.308Z,54.61
2018-07-13T10:07:23.177Z,57.33
2018-07-13T10:08:23.220Z,57.23
2018-07-13T10:09:23.047Z,56.68
2018-07-13T10:10:23.029Z,55.90
2018-07-13T10:11:22.915Z,50.95
2018-07-13T10:12:22.940Z,52.01
2018-07-13T10:13:22.792Z,53.47
2018-07-13T10:14:22.722Z,54.32
2018-07-13T10:15:22.756Z,50.02
2018-07-13T10:16:22.588Z,50.89
2018-07-13T10:17:22.566Z,52.35
2018-07-13T10:18:22.463Z,54.00
2018-07-13T10:19:22.477Z,53.61
2018-07-13T10:20:22.334Z,53.83
2018-07-13T10:21:22.284Z,52.94
2018-07-13T10:22:22.199Z,53.13
2018-07-13T10:23:22.197Z,54.58
2018-07-13T10:24:22.065Z,53.93
2018-07-13T10:25:22.108Z,53.83
2018-07-13T10:26:21.937Z,53.67
2018-07-13T10:27:21.918Z,51.72
2018-07-13T10:28:21.811Z,50.48
2018-07-13T10:29:21.741Z,53.11
2018-07-13T10:30:21.738Z,51.26
2018-07-13T10:31:21.614Z,51.17
2018-07-13T10:32:21.644Z,51.72
2018-07-13T10:33:21.480Z,52.23
2018-07-13T10:34:21.417Z,50.19
2018-07-13T10:35:21.388Z,49.22
2018-07-13T10:36:21.365Z,48.93
2018-07-13T10:37:21.225Z,49.02
2018-07-13T10:38:21.276Z,50.26
2018-07-13T10:39:21.094Z,50.65
2018-07-13T10:40:21.086Z,49.66
2018-07-13T10:41:20.964Z,49.87
2018-07-13T10:42:20.999Z,51.79
2018-07-13T10:43:20.837Z,50.65
2018-07-13T10:44:20.807Z,52.40
2018-07-13T10:45:20.707Z,52.69
2018-07-13T10:46:20.721Z,55.03
2018-07-13T10:47:20.580Z,56.03
2018-07-13T10:48:20.633Z,54.08
2018-07-13T10:49:20.452Z,54.79
2018-07-13T10:50:20.440Z,53.62
2018-07-13T10:51:20.321Z,52.09
2018-07-13T10:52:20.351Z,51.90
2018-07-13T10:53:20.194Z,50.60
2018-07-13T10:54:20.159Z,48.17
2018-07-13T10:55:20.062Z,47.59
2018-07-13T10:56:19.999Z,46.59
2018-07-13T10:57:19.977Z,47.37
2018-07-13T10:58:19.872Z,47.86
2018-07-13T10:59:19.888Z,47.37
2018-07-13T11:00:19.749Z,47.69
2018-07-13T11:01:19.801Z,46.59
2018-07-13T11:02:19.613Z,46.98
2018-07-13T11:03:19.612Z,48.05
2018-07-13T11:04:19.484Z,50.56
2018-07-13T11:05:19.524Z,47.05
2018-07-13T11:06:19.356Z,46.47
2018-07-13T11:07:19.331Z,46.57
2018-07-13T11:08:19.230Z,47.03
2018-07-13T11:09:19.239Z,49.19
2018-07-13T11:10:19.099Z,47.93
2018-07-13T11:11:19.152Z,51.72
2018-07-13T11:12:18.967Z,50.95
2018-07-13T11:13:18.961Z,54.38
2018-07-13T11:14:18.838Z,53.59
2018-07-13T11:15:18.772Z,54.21
2018-07-13T11:16:18.712Z,53.52
2018-07-13T11:17:18.681Z,50.60
2018-07-13T11:18:18.589Z,49.37
2018-07-13T11:19:18.595Z,49.46
2018-07-13T11:20:18.453Z,50.53
2018-07-13T11:21:18.504Z,47.59
2018-07-13T11:22:18.325Z,46.59
2018-07-13T11:23:18.317Z,45.60
2018-07-13T11:24:18.259Z,46.40
2018-07-13T11:25:18.228Z,48.93
2018-07-13T11:26:18.066Z,46.78
2018-07-13T11:27:18.137Z,45.81
2018-07-13T11:28:17.936Z,45.72
2018-07-13T11:29:17.946Z,46.11
2018-07-13T11:30:17.810Z,46.42
2018-07-13T11:31:17.861Z,47.69
2018-07-13T11:32:17.678Z,50.78
2018-07-13T11:33:17.667Z,49.99
2018-07-13T11:34:17.550Z,46.30
2018-07-13T11:35:17.489Z,46.01
2018-07-13T11:36:17.480Z,45.32
2018-07-13T11:37:17.463Z,46.47
2018-07-13T11:38:17.393Z,46.47
2018-07-13T11:39:17.229Z,45.79
2018-07-13T11:40:17.176Z,46.77
2018-07-13T11:41:17.103Z,46.45
2018-07-13T11:42:17.132Z,47.32
2018-07-13T11:43:16.972Z,47.13
2018-07-13T11:44:17.041Z,46.35
2018-07-13T11:45:16.843Z,46.45
2018-07-13T11:46:16.831Z,46.74
2018-07-13T11:47:16.716Z,46.15
2018-07-13T11:48:16.746Z,46.25
2018-07-13T11:49:16.588Z,48.20
2018-07-13T11:50:16.656Z,50.53
2018-07-13T11:51:16.454Z,50.34
2018-07-13T11:52:16.662Z,49.17
2018-07-13T11:53:16.339Z,48.78
2018-07-13T11:54:16.387Z,47.32
2018-07-13T11:55:16.195Z,46.74
2018-07-13T11:56:16.126Z,47.91
2018-07-13T11:57:16.092Z,49.76
2018-07-13T11:58:16.003Z,47.71
2018-07-13T11:59:16.002Z,49.07
2018-07-13T12:00:15.875Z,49.46
2018-07-13T12:01:15.915Z,54.39
2018-07-13T12:02:15.747Z,55.65
2018-07-13T12:03:15.721Z,52.15
2018-07-13T12:04:15.612Z,52.09
2018-07-13T12:05:15.632Z,52.47
2018-07-13T12:06:15.485Z,54.35
2018-07-13T12:07:15.443Z,53.47
2018-07-13T12:08:15.349Z,52.92
2018-07-13T12:09:15.361Z,53.01
2018-07-13T12:10:15.225Z,52.33
2018-07-13T12:11:15.266Z,53.69
2018-07-13T12:12:15.097Z,53.30
2018-07-13T12:13:15.078Z,52.14
2018-07-13T12:14:14.968Z,50.97
2018-07-13T12:15:14.989Z,51.84
2018-07-13T12:16:14.834Z,50.68
2018-07-13T12:17:14.902Z,49.99
2018-07-13T12:18:14.706Z,49.02
2018-07-13T12:19:14.704Z,48.32
2018-07-13T12:20:14.580Z,47.25
2018-07-13T12:21:14.620Z,47.64
2018-07-13T12:22:14.448Z,47.25
2018-07-13T12:23:14.439Z,46.06
2018-07-13T12:24:14.320Z,46.42
2018-07-13T12:25:14.340Z,46.52
2018-07-13T12:26:14.195Z,46.91
2018-07-13T12:27:14.251Z,47.78
2018-07-13T12:28:14.060Z,48.20
2018-07-13T12:29:14.060Z,50.43
2018-07-13T12:30:13.928Z,48.58
2018-07-13T12:31:13.972Z,46.42
2018-07-13T12:32:13.802Z,48.18
2018-07-13T12:33:13.883Z,49.85
2018-07-13T12:34:13.672Z,49.95
2018-07-13T12:35:13.695Z,50.73
2018-07-13T12:36:13.538Z,50.14
2018-07-13T12:37:13.602Z,48.49
2018-07-13T12:38:13.414Z,47.42
2018-07-13T12:39:13.347Z,47.91
2018-07-13T12:40:13.419Z,45.89
2018-07-13T12:41:13.218Z,47.44
2018-07-13T12:42:13.230Z,47.34
2018-07-13T12:43:13.091Z,47.64
2018-07-13T12:44:13.142Z,46.37
2018-07-13T12:45:12.961Z,46.69
2018-07-13T12:46:12.955Z,46.69
2018-07-13T12:47:12.829Z,47.20
2018-07-13T12:48:12.861Z,47.37
2018-07-13T12:49:12.770Z,46.91
2018-07-13T12:50:12.770Z,46.13
2018-07-13T12:51:12.575Z,46.61